createdAt,value
2018-09-27T00:00:58.450Z,22.02
2018-09-27T00:02:07.877Z,21.91
2018-09-27T00:03:17.556Z,21.94
2018-09-27T00:04:26.716Z,21.98
2018-09-27T00:05:35.902Z,22
2018-09-27T00:06:45.334Z,22.03
2018-09-27T00:07:55.024Z,21.94
2018-09-27T00:09:04.983Z,21.92
2018-09-27T00:10:14.670Z,21.96
2018-09-27T00:11:24.359Z,21.96
2018-09-27T00:12:33.530Z,22.02
2018-09-27T00:13:42.451Z,21.96
2018-09-27T00:14:52.397Z,22.02
2018-09-27T00:16:02.360Z,21.96
2018-09-27T00:17:11.529Z,22
2018-09-27T00:18:21.214Z,22.02
2018-09-27T00:19:30.644Z,21.99
2018-09-27T00:20:39.934Z,21.98
2018-09-27T00:21:49.625Z,22
2018-09-27T00:22:58.791Z,22.02
2018-09-27T00:24:08.489Z,22
2018-09-27T00:25:17.390Z,22
2018-09-27T00:26:26.818Z,21.96
2018-09-27T00:27:36.244Z,21.99
2018-09-27T00:28:45.393Z,21.96
2018-09-27T00:29:54.810Z,22.03
2018-09-27T00:31:03.984Z,21.86
2018-09-27T00:32:13.663Z,22
2018-09-27T00:33:23.091Z,22.03
2018-09-27T00:34:33.034Z,21.9
2018-09-27T00:35:42.734Z,21.96
2018-09-27T00:36:52.156Z,22.02
2018-09-27T00:38:01.324Z,22
2018-09-27T00:39:10.754Z,21.99
2018-09-27T00:40:20.169Z,21.96
2018-09-27T00:41:30.096Z,21.99
2018-09-27T00:42:39.274Z,22.02
2018-09-27T00:43:48.705Z,22
2018-09-27T00:44:58.389Z,21.92
2018-09-27T00:46:08.082Z,22.02
2018-09-27T00:47:17.259Z,21.88
2018-09-27T00:48:26.694Z,21.99
2018-09-27T00:49:35.852Z,22
2018-09-27T00:50:45.525Z,22.03
2018-09-27T00:51:54.445Z,21.96
2018-09-27T00:53:03.873Z,21.94
2018-09-27T00:54:13.042Z,21.99
2018-09-27T00:55:22.467Z,21.91
2018-09-27T00:56:31.890Z,21.98
2018-09-27T00:57:41.573Z,21.98
2018-09-27T00:58:50.991Z,21.96
2018-09-27T01:00:00.158Z,21.94
2018-09-27T01:01:09.593Z,21.99
2018-09-27T01:02:19.301Z,22
2018-09-27T01:03:28.726Z,21.86
2018-09-27T01:04:38.405Z,21.92
2018-09-27T01:05:47.580Z,22
2018-09-27T01:06:57.109Z,21.96
2018-09-27T01:08:06.540Z,22
2018-09-27T01:09:15.702Z,21.96
2018-09-27T01:10:25.419Z,21.96
2018-09-27T01:11:34.543Z,21.92
2018-09-27T01:12:44.223Z,21.98
2018-09-27T01:13:53.389Z,22.02
2018-09-27T01:15:03.260Z,21.99
2018-09-27T01:16:12.972Z,21.96
2018-09-27T01:17:22.215Z,21.96
2018-09-27T01:18:31.394Z,22.03
2018-09-27T01:19:40.818Z,21.9
2018-09-27T01:20:49.721Z,21.84
2018-09-27T01:21:59.400Z,21.92
2018-09-27T01:23:09.095Z,21.83
2018-09-27T01:24:18.782Z,21.9
2018-09-27T01:25:28.204Z,21.96
2018-09-27T01:26:37.120Z,22.03
2018-09-27T01:27:46.856Z,22.02
2018-09-27T01:28:56.816Z,22.02
2018-09-27T01:30:06.503Z,21.98
2018-09-27T01:31:15.400Z,21.92
2018-09-27T01:32:24.824Z,21.96
2018-09-27T01:33:34.509Z,21.98
2018-09-27T01:34:43.931Z,21.94
2018-09-27T01:35:53.342Z,21.94
2018-09-27T01:37:02.765Z,21.99
2018-09-27T01:38:12.449Z,21.99
2018-09-27T01:39:21.618Z,21.96
2018-09-27T01:40:31.055Z,21.99
2018-09-27T01:41:40.503Z,22
2018-09-27T01:42:49.930Z,21.94
2018-09-27T01:43:59.090Z,22
2018-09-27T01:45:08.773Z,21.94
2018-09-27T01:46:18.705Z,21.99
2018-09-27T01:47:28.388Z,21.9
2018-09-27T01:48:37.919Z,21.94
2018-09-27T01:49:47.334Z,21.91
2018-09-27T01:50:56.763Z,21.98
2018-09-27T01:52:06.263Z,21.98
2018-09-27T01:53:16.182Z,21.98
2018-09-27T01:54:25.610Z,21.96
2018-09-27T01:55:35.280Z,22
2018-09-27T01:56:44.508Z,21.91
2018-09-27T01:57:53.688Z,22
2018-09-27T01:59:03.117Z,21.91
2018-09-27T02:00:12.536Z,22.03
2018-09-27T02:01:21.695Z,21.82
2018-09-27T02:02:31.375Z,22
2018-09-27T02:03:40.288Z,22
2018-09-27T02:04:49.727Z,21.96
2018-09-27T02:05:59.158Z,22.03
2018-09-27T02:07:08.836Z,21.84
2018-09-27T02:08:17.740Z,21.94
2018-09-27T02:09:27.190Z,21.99
2018-09-27T02:10:37.119Z,21.99
2018-09-27T02:11:46.282Z,21.99
2018-09-27T02:12:55.712Z,21.88
2018-09-27T02:14:05.146Z,21.99
2018-09-27T02:15:15.090Z,21.99
2018-09-27T02:16:24.782Z,21.9
2018-09-27T02:17:34.221Z,21.86
2018-09-27T02:18:43.133Z,22.03
2018-09-27T02:19:52.061Z,21.88
2018-09-27T02:21:01.503Z,21.9
2018-09-27T02:22:10.958Z,21.99
2018-09-27T02:23:19.883Z,22.03
2018-09-27T02:24:28.788Z,21.84
2018-09-27T02:25:38.212Z,22.02
2018-09-27T02:26:47.640Z,21.99
2018-09-27T02:27:56.812Z,22
2018-09-27T02:29:06.496Z,22
2018-09-27T02:30:16.201Z,21.82
2018-09-27T02:31:25.633Z,21.9
2018-09-27T02:32:35.332Z,21.99
2018-09-27T02:33:45.039Z,21.88
2018-09-27T02:34:54.963Z,21.94
2018-09-27T02:36:04.397Z,21.91
2018-09-27T02:37:13.868Z,21.98
2018-09-27T02:38:23.042Z,21.99
2018-09-27T02:39:32.732Z,21.99
2018-09-27T02:40:42.419Z,21.98
2018-09-27T02:41:52.096Z,21.98
2018-09-27T02:43:01.527Z,21.96
2018-09-27T02:44:10.431Z,21.88
2018-09-27T02:45:20.375Z,21.94
2018-09-27T02:46:29.805Z,21.94
2018-09-27T02:47:39.236Z,21.86
2018-09-27T02:48:48.667Z,21.91
2018-09-27T02:49:58.348Z,21.96
2018-09-27T02:51:07.513Z,21.99
2018-09-27T02:52:16.972Z,22
2018-09-27T02:53:26.425Z,21.91
2018-09-27T02:54:36.371Z,21.99
2018-09-27T02:55:45.815Z,22
2018-09-27T02:56:55.507Z,21.94
2018-09-27T02:58:04.940Z,21.83
2018-09-27T02:59:14.873Z,21.82
2018-09-27T03:00:24.554Z,21.94
2018-09-27T03:01:33.720Z,21.84
2018-09-27T03:02:43.159Z,21.99
2018-09-27T03:03:52.841Z,21.96
2018-09-27T03:05:02.529Z,21.84
2018-09-27T03:06:12.226Z,21.96
2018-09-27T03:07:21.659Z,21.94
2018-09-27T03:08:31.380Z,21.98
2018-09-27T03:09:41.056Z,21.94
2018-09-27T03:10:49.981Z,21.96
2018-09-27T03:11:59.422Z,21.96
2018-09-27T03:13:08.882Z,21.96
2018-09-27T03:14:18.071Z,21.94
2018-09-27T03:15:27.491Z,21.94
2018-09-27T03:16:36.667Z,22
2018-09-27T03:17:46.094Z,21.99
2018-09-27T03:18:55.527Z,21.86
2018-09-27T03:20:04.700Z,21.94
2018-09-27T03:21:14.671Z,21.82
2018-09-27T03:22:24.646Z,21.99
2018-09-27T03:23:33.288Z,21.99
2018-09-27T03:24:42.454Z,21.96
2018-09-27T03:25:52.405Z,22
2018-09-27T03:27:02.093Z,22
2018-09-27T03:28:12.024Z,21.96
2018-09-27T03:29:21.445Z,21.99
2018-09-27T03:30:31.140Z,21.92
2018-09-27T03:31:41.140Z,21.94
2018-09-27T03:32:51.092Z,21.98
2018-09-27T03:34:00.772Z,21.99
2018-09-27T03:35:10.458Z,21.99
2018-09-27T03:36:19.647Z,22
2018-09-27T03:37:28.819Z,21.98
2018-09-27T03:38:38.779Z,22.02
2018-09-27T03:39:49.070Z,21.96
2018-09-27T03:40:58.505Z,22
2018-09-27T03:42:08.469Z,21.94
2018-09-27T03:43:17.621Z,21.94
2018-09-27T03:44:27.058Z,21.99
2018-09-27T03:45:36.728Z,21.99
2018-09-27T03:46:46.218Z,21.94
2018-09-27T03:47:55.836Z,21.94
2018-09-27T03:49:05.261Z,21.99
2018-09-27T03:50:14.971Z,21.98
2018-09-27T03:51:24.406Z,22.02
2018-09-27T03:52:34.350Z,21.98
2018-09-27T03:53:44.311Z,21.98
2018-09-27T03:54:53.745Z,21.9
2018-09-27T03:56:03.428Z,21.99
2018-09-27T03:57:12.364Z,21.9
2018-09-27T03:58:21.287Z,21.94
2018-09-27T03:59:31.278Z,21.99
2018-09-27T04:00:41.215Z,21.98
2018-09-27T04:01:50.628Z,22.02
2018-09-27T04:03:00.329Z,21.84
2018-09-27T04:04:09.517Z,21.99
2018-09-27T04:05:18.943Z,21.99
2018-09-27T04:06:28.391Z,22
2018-09-27T04:07:38.088Z,21.96
2018-09-27T04:08:47.248Z,21.99
2018-09-27T04:09:56.735Z,21.94
2018-09-27T04:11:06.480Z,21.99
2018-09-27T04:12:16.173Z,21.88
2018-09-27T04:13:25.599Z,21.96
2018-09-27T04:14:34.500Z,21.96
2018-09-27T04:15:43.726Z,22.02
2018-09-27T04:16:53.583Z,21.99
2018-09-27T04:18:03.260Z,22
2018-09-27T04:19:12.700Z,21.86
2018-09-27T04:20:22.120Z,21.9
2018-09-27T04:21:31.547Z,21.98
2018-09-27T04:22:40.714Z,22
2018-09-27T04:23:50.193Z,21.96
2018-09-27T04:25:00.307Z,21.96
2018-09-27T04:26:09.982Z,21.98
2018-09-27T04:27:19.410Z,21.96
2018-09-27T04:28:29.102Z,21.86
2018-09-27T04:29:38.001Z,21.99
2018-09-27T04:30:47.693Z,21.96
2018-09-27T04:31:56.855Z,21.96
2018-09-27T04:33:06.539Z,21.99
2018-09-27T04:34:15.969Z,21.99
2018-09-27T04:35:26.078Z,21.86
2018-09-27T04:36:35.500Z,21.9
2018-09-27T04:37:44.417Z,21.98
2018-09-27T04:38:54.361Z,22
2018-09-27T04:40:04.060Z,21.99
2018-09-27T04:41:13.232Z,21.86
2018-09-27T04:42:22.919Z,21.98
2018-09-27T04:43:32.090Z,21.9
2018-09-27T04:44:41.775Z,21.9
2018-09-27T04:45:51.686Z,21.96
2018-09-27T04:47:01.548Z,21.99
2018-09-27T04:48:10.968Z,21.91
2018-09-27T04:49:20.658Z,21.88
2018-09-27T04:50:30.343Z,21.99
2018-09-27T04:51:39.802Z,22
2018-09-27T04:52:49.654Z,21.88
2018-09-27T04:53:58.824Z,21.96
2018-09-27T04:55:08.002Z,21.94
2018-09-27T04:56:17.510Z,21.9
2018-09-27T04:57:27.225Z,21.9
2018-09-27T04:58:36.958Z,21.9
2018-09-27T04:59:46.404Z,22
2018-09-27T05:00:56.110Z,21.96
2018-09-27T05:02:05.279Z,21.9
2018-09-27T05:03:15.226Z,21.9
2018-09-27T05:04:24.912Z,21.88
2018-09-27T05:05:34.084Z,21.96
2018-09-27T05:06:43.504Z,21.86
2018-09-27T05:07:52.677Z,21.96
2018-09-27T05:09:02.114Z,21.88
2018-09-27T05:10:11.549Z,22
2018-09-27T05:11:20.995Z,21.98
2018-09-27T05:12:30.678Z,21.9
2018-09-27T05:13:40.113Z,21.92
2018-09-27T05:14:49.536Z,21.98
2018-09-27T05:15:59.340Z,21.92
2018-09-27T05:17:08.893Z,21.96
2018-09-27T05:18:18.316Z,21.86
2018-09-27T05:19:27.747Z,21.9
2018-09-27T05:20:37.616Z,21.92
2018-09-27T05:21:47.662Z,21.9
2018-09-27T05:22:56.842Z,21.86
2018-09-27T05:24:06.266Z,21.92
2018-09-27T05:25:15.446Z,21.9
2018-09-27T05:26:24.628Z,21.9
2018-09-27T05:27:34.132Z,21.98
2018-09-27T05:28:44.000Z,21.92
2018-09-27T05:29:53.175Z,21.96
2018-09-27T05:31:02.846Z,21.92
2018-09-27T05:32:12.532Z,21.9
2018-09-27T05:33:22.415Z,21.9
2018-09-27T05:34:31.894Z,21.94
2018-09-27T05:35:41.837Z,21.98
2018-09-27T05:36:51.005Z,21.98
2018-09-27T05:38:00.693Z,21.9
2018-09-27T05:39:10.386Z,21.84
2018-09-27T05:40:20.076Z,21.84
2018-09-27T05:41:29.769Z,21.88
2018-09-27T05:42:38.721Z,21.9
2018-09-27T05:43:48.144Z,21.92
2018-09-27T05:44:57.590Z,21.99
2018-09-27T05:46:06.756Z,21.92
2018-09-27T05:47:15.927Z,21.94
2018-09-27T05:48:25.625Z,21.91
2018-09-27T05:49:34.807Z,21.9
2018-09-27T05:50:44.227Z,21.9
2018-09-27T05:51:53.401Z,21.9
2018-09-27T05:53:02.592Z,21.9
2018-09-27T05:54:11.750Z,21.94
2018-09-27T05:55:21.458Z,21.84
2018-09-27T05:56:30.886Z,21.9
2018-09-27T05:57:40.797Z,21.94
2018-09-27T05:58:50.378Z,21.83
2018-09-27T05:59:59.556Z,21.98
2018-09-27T06:01:08.996Z,21.86
2018-09-27T06:02:18.744Z,21.91
2018-09-27T06:03:28.472Z,21.86
2018-09-27T06:04:38.323Z,21.91
2018-09-27T06:05:48.009Z,21.86
2018-09-27T06:06:57.169Z,21.9
2018-09-27T06:08:06.342Z,21.92
2018-09-27T06:09:15.773Z,21.94
2018-09-27T06:10:25.715Z,21.9
2018-09-27T06:11:35.284Z,21.9
2018-09-27T06:12:44.506Z,21.92
2018-09-27T06:13:54.475Z,21.94
2018-09-27T06:15:04.169Z,21.91
2018-09-27T06:16:13.594Z,21.88
2018-09-27T06:17:22.759Z,21.92
2018-09-27T06:18:31.927Z,21.84
2018-09-27T06:19:41.730Z,21.91
2018-09-27T06:20:51.188Z,21.9
2018-09-27T06:22:00.621Z,21.91
2018-09-27T06:23:10.055Z,21.91
2018-09-27T06:24:19.257Z,21.91
2018-09-27T06:25:28.488Z,21.88
2018-09-27T06:26:37.713Z,21.88
2018-09-27T06:27:47.510Z,21.86
2018-09-27T06:28:56.927Z,21.88
2018-09-27T06:30:06.656Z,21.91
2018-09-27T06:31:15.843Z,21.98
2018-09-27T06:32:25.007Z,21.98
2018-09-27T06:33:34.850Z,21.88
2018-09-27T06:34:44.697Z,21.84
2018-09-27T06:35:54.121Z,21.98
2018-09-27T06:37:04.000Z,21.88
2018-09-27T06:38:13.429Z,21.94
2018-09-27T06:39:22.845Z,21.9
2018-09-27T06:40:32.780Z,21.94
2018-09-27T06:41:42.209Z,21.86
2018-09-27T06:42:51.674Z,21.84
2018-09-27T06:44:00.839Z,21.94
2018-09-27T06:45:10.541Z,21.9
2018-09-27T06:46:20.241Z,21.94
2018-09-27T06:47:29.146Z,21.92
2018-09-27T06:48:39.252Z,21.94
2018-09-27T06:49:48.723Z,21.9
2018-09-27T06:50:58.410Z,21.91
2018-09-27T06:52:07.845Z,21.86
2018-09-27T06:53:16.744Z,21.92
2018-09-27T06:54:25.908Z,21.91
2018-09-27T06:55:36.388Z,21.91
2018-09-27T06:56:46.808Z,21.9
2018-09-27T06:57:56.000Z,21.91
2018-09-27T06:59:05.426Z,21.94
2018-09-27T07:00:15.116Z,21.91
2018-09-27T07:01:24.547Z,21.94
2018-09-27T07:02:34.844Z,21.9
2018-09-27T07:03:43.826Z,21.94
2018-09-27T07:04:53.685Z,21.84
2018-09-27T07:06:03.297Z,21.88
2018-09-27T07:07:12.639Z,21.86
2018-09-27T07:08:22.432Z,21.94
2018-09-27T07:09:32.481Z,21.91
2018-09-27T07:10:41.661Z,21.92
2018-09-27T07:11:51.261Z,21.88
2018-09-27T07:13:01.213Z,21.94
2018-09-27T07:14:10.907Z,21.84
2018-09-27T07:15:20.101Z,21.9
2018-09-27T07:16:29.278Z,21.9
2018-09-27T07:17:38.452Z,21.92
2018-09-27T07:18:48.025Z,21.86
2018-09-27T07:19:57.896Z,21.88
2018-09-27T07:21:07.323Z,21.91
2018-09-27T07:22:17.016Z,21.92
2018-09-27T07:23:26.694Z,21.88
2018-09-27T07:24:36.404Z,21.94
2018-09-27T07:25:45.314Z,21.92
2018-09-27T07:26:55.665Z,21.9
2018-09-27T07:28:04.604Z,21.9
2018-09-27T07:29:13.523Z,21.91
2018-09-27T07:30:23.210Z,21.88
2018-09-27T07:31:33.146Z,21.9
2018-09-27T07:32:42.785Z,21.91
2018-09-27T07:33:52.347Z,21.91
2018-09-27T07:35:02.187Z,21.91
2018-09-27T07:36:11.602Z,21.84
2018-09-27T07:37:21.023Z,21.88
2018-09-27T07:38:30.013Z,21.86
2018-09-27T07:39:40.105Z,21.92
2018-09-27T07:40:49.781Z,21.9
2018-09-27T07:41:58.939Z,21.91
2018-09-27T07:43:08.633Z,21.91
2018-09-27T07:44:18.335Z,21.9
2018-09-27T07:45:27.809Z,21.98
2018-09-27T07:46:37.534Z,21.9
2018-09-27T07:47:46.707Z,21.9
2018-09-27T07:48:55.870Z,21.92
2018-09-27T07:50:05.297Z,21.9
2018-09-27T07:51:14.977Z,21.88
2018-09-27T07:52:24.458Z,21.9
2018-09-27T07:53:33.883Z,21.9
2018-09-27T07:54:43.572Z,21.91
2018-09-27T07:55:52.847Z,21.9
2018-09-27T07:57:01.761Z,21.9
2018-09-27T07:58:10.950Z,21.92
2018-09-27T07:59:20.124Z,21.98
2018-09-27T08:00:29.345Z,21.86
2018-09-27T08:01:39.050Z,21.88
2018-09-27T08:02:49.198Z,21.86
2018-09-27T08:03:58.948Z,21.91
2018-09-27T08:05:09.014Z,21.91
2018-09-27T08:06:18.441Z,21.84
2018-09-27T08:07:27.880Z,21.91
2018-09-27T08:08:37.545Z,21.92
2018-09-27T08:09:46.822Z,21.91
2018-09-27T08:10:56.859Z,21.94
2018-09-27T08:12:06.832Z,21.92
2018-09-27T08:13:16.256Z,21.92
2018-09-27T08:14:25.536Z,21.9
2018-09-27T08:15:35.060Z,21.9
2018-09-27T08:16:44.588Z,21.94
2018-09-27T08:17:54.353Z,21.88
2018-09-27T08:19:03.780Z,21.88
2018-09-27T08:20:12.956Z,21.91
2018-09-27T08:21:23.084Z,21.9
2018-09-27T08:22:32.539Z,21.83
2018-09-27T08:23:42.387Z,21.86
2018-09-27T08:24:51.617Z,21.88
2018-09-27T08:26:01.038Z,21.86
2018-09-27T08:27:10.496Z,21.99
2018-09-27T08:28:19.923Z,21.92
2018-09-27T08:29:29.624Z,22
2018-09-27T08:30:39.421Z,21.96
2018-09-27T08:31:49.032Z,21.96
2018-09-27T08:32:58.191Z,21.94
2018-09-27T08:34:07.347Z,21.92
2018-09-27T08:35:16.796Z,22
2018-09-27T08:36:26.728Z,21.91
2018-09-27T08:37:35.912Z,21.91
2018-09-27T08:38:45.879Z,21.98
2018-09-27T08:39:55.904Z,21.86
2018-09-27T08:41:05.138Z,21.91
2018-09-27T08:42:14.579Z,21.86
2018-09-27T08:43:24.007Z,21.99
2018-09-27T08:44:33.508Z,21.91
2018-09-27T08:45:43.894Z,21.99
2018-09-27T08:46:53.785Z,21.9
2018-09-27T08:48:03.210Z,21.86
2018-09-27T08:49:12.380Z,21.9
2018-09-27T08:50:21.808Z,21.94
2018-09-27T08:51:31.552Z,21.98
2018-09-27T08:52:41.640Z,21.94
2018-09-27T08:53:51.333Z,21.94
2018-09-27T08:55:01.024Z,21.96
2018-09-27T08:56:10.974Z,21.99
2018-09-27T08:57:20.250Z,21.9
2018-09-27T08:58:30.277Z,21.96
2018-09-27T08:59:39.700Z,21.86
2018-09-27T09:00:49.467Z,22
2018-09-27T09:01:59.167Z,21.99
2018-09-27T09:03:08.588Z,21.99
2018-09-27T09:04:18.041Z,21.99
2018-09-27T09:05:27.747Z,22.02
2018-09-27T09:06:37.173Z,21.98
2018-09-27T09:07:47.073Z,21.96
2018-09-27T09:08:56.773Z,21.94
2018-09-27T09:10:06.206Z,21.99
2018-09-27T09:11:16.168Z,21.96
2018-09-27T09:12:25.849Z,21.84
2018-09-27T09:13:35.776Z,21.94
2018-09-27T09:14:45.405Z,21.98
2018-09-27T09:15:54.839Z,21.94
2018-09-27T09:17:03.996Z,21.94
2018-09-27T09:18:13.697Z,21.99
2018-09-27T09:19:22.615Z,21.94
2018-09-27T09:20:32.504Z,21.98
2018-09-27T09:21:42.563Z,21.99
2018-09-27T09:22:52.309Z,21.98
2018-09-27T09:24:01.734Z,21.86
2018-09-27T09:25:11.437Z,22.02
2018-09-27T09:26:20.595Z,21.94
2018-09-27T09:27:29.832Z,21.84
2018-09-27T09:28:39.833Z,21.88
2018-09-27T09:29:49.381Z,22
2018-09-27T09:30:59.116Z,21.83
2018-09-27T09:32:08.545Z,21.98
2018-09-27T09:33:18.503Z,21.96
2018-09-27T09:34:28.208Z,21.88
2018-09-27T09:35:37.848Z,21.9
2018-09-27T09:36:47.792Z,21.99
2018-09-27T09:37:57.483Z,21.96
2018-09-27T09:39:06.656Z,21.94
2018-09-27T09:40:16.090Z,21.99
2018-09-27T09:41:25.508Z,21.99
2018-09-27T09:42:35.444Z,22
2018-09-27T09:43:44.631Z,21.96
2018-09-27T09:44:54.313Z,21.96
2018-09-27T09:46:03.748Z,22.03
2018-09-27T09:47:12.907Z,22
2018-09-27T09:48:22.090Z,21.91
2018-09-27T09:49:31.292Z,21.91
2018-09-27T09:50:40.972Z,21.88
2018-09-27T09:51:50.670Z,21.91
2018-09-27T09:53:00.351Z,21.86
2018-09-27T09:54:10.033Z,21.96
2018-09-27T09:55:19.741Z,22.03
2018-09-27T09:56:29.427Z,21.92
2018-09-27T09:57:38.615Z,22
2018-09-27T09:58:47.779Z,21.9
2018-09-27T09:59:57.198Z,22
2018-09-27T10:01:06.877Z,22.02
2018-09-27T10:02:16.368Z,21.94
2018-09-27T10:03:26.085Z,21.88
2018-09-27T10:04:35.506Z,21.94
2018-09-27T10:05:44.984Z,21.91
2018-09-27T10:06:54.404Z,22
2018-09-27T10:08:03.827Z,22
2018-09-27T10:09:12.993Z,21.98
2018-09-27T10:10:22.406Z,21.98
2018-09-27T10:11:31.566Z,22
2018-09-27T10:12:40.999Z,21.98
2018-09-27T10:13:50.427Z,22.02
2018-09-27T10:16:41.101Z,21.88
2018-09-27T10:17:51.062Z,22
2018-09-27T10:18:59.960Z,21.99
2018-09-27T10:20:09.120Z,22.03
2018-09-27T10:21:18.276Z,21.98
2018-09-27T10:22:28.220Z,22.03
2018-09-27T10:23:37.384Z,21.96
2018-09-27T10:24:47.089Z,21.91
2018-09-27T10:25:56.280Z,22
2018-09-27T10:27:05.485Z,22.03
2018-09-27T10:28:14.966Z,21.91
2018-09-27T10:29:24.401Z,22.02
2018-09-27T10:30:34.289Z,21.99
2018-09-27T10:31:43.977Z,22
2018-09-27T10:32:53.675Z,22.02
2018-09-27T10:34:02.652Z,22.05
2018-09-27T10:35:12.424Z,21.98
2018-09-27T10:36:22.116Z,21.96
2018-09-27T10:37:31.792Z,21.96
2018-09-27T10:38:41.939Z,21.96
2018-09-27T10:39:51.638Z,21.94
2018-09-27T10:41:00.562Z,21.98
2018-09-27T10:42:09.469Z,22
2018-09-27T10:43:18.707Z,21.96
2018-09-27T10:44:27.889Z,22
2018-09-27T10:45:37.307Z,21.94
2018-09-27T10:46:46.734Z,22
2018-09-27T10:47:56.439Z,21.99
2018-09-27T10:49:05.880Z,21.94
2018-09-27T10:50:15.063Z,22.05
2018-09-27T10:51:24.326Z,21.99
2018-09-27T10:52:34.264Z,21.98
2018-09-27T10:53:43.942Z,21.99
2018-09-27T10:54:53.639Z,21.96
2018-09-27T10:56:03.332Z,22
2018-09-27T10:57:13.567Z,21.99
2018-09-27T10:58:23.341Z,21.94
2018-09-27T10:59:33.358Z,21.94
2018-09-27T11:00:43.154Z,21.98
2018-09-27T11:01:52.827Z,21.99
2018-09-27T11:03:02.269Z,21.96
2018-09-27T11:04:12.500Z,22
2018-09-27T11:05:21.851Z,21.99
2018-09-27T11:06:31.910Z,21.99
2018-09-27T11:07:41.344Z,21.99
2018-09-27T11:08:50.775Z,21.94
2018-09-27T11:10:00.223Z,21.98
2018-09-27T11:11:10.477Z,21.96
2018-09-27T11:12:20.103Z,22
2018-09-27T11:13:29.530Z,21.96
2018-09-27T11:14:39.474Z,21.96
2018-09-27T11:15:48.910Z,22.03
2018-09-27T11:16:59.269Z,22.02
2018-09-27T11:18:08.464Z,21.94
2018-09-27T11:19:18.169Z,21.98
2018-09-27T11:20:27.630Z,21.98
2018-09-27T11:21:37.576Z,21.99
2018-09-27T11:22:47.264Z,21.98
2018-09-27T11:23:57.021Z,21.92
2018-09-27T11:25:06.188Z,21.96
2018-09-27T11:26:15.610Z,21.92
2018-09-27T11:27:24.815Z,21.99
2018-09-27T11:28:34.535Z,21.94
2018-09-27T11:29:44.206Z,22
2018-09-27T11:30:53.670Z,22
2018-09-27T11:32:03.342Z,21.96
2018-09-27T11:33:13.000Z,22.02
2018-09-27T11:34:22.703Z,21.99
2018-09-27T11:35:32.662Z,22
2018-09-27T11:36:42.085Z,21.99
2018-09-27T11:37:51.280Z,21.98
2018-09-27T11:39:00.704Z,21.96
2018-09-27T11:40:10.648Z,22.03
2018-09-27T11:41:20.069Z,21.98
2018-09-27T11:42:30.133Z,21.94
2018-09-27T11:43:39.769Z,22
2018-09-27T11:44:49.465Z,22.05
2018-09-27T11:45:58.894Z,21.96
2018-09-27T11:47:08.601Z,22
2018-09-27T11:48:17.760Z,21.99
2018-09-27T11:49:27.970Z,22.02
2018-09-27T11:50:38.576Z,22.03
2018-09-27T11:51:48.003Z,21.99
2018-09-27T11:52:57.435Z,21.99
2018-09-27T11:54:06.611Z,21.98
2018-09-27T11:55:16.270Z,21.98
2018-09-27T11:56:25.465Z,22
2018-09-27T11:57:34.895Z,21.96
2018-09-27T11:58:44.334Z,21.99
2018-09-27T11:59:53.330Z,22.06
2018-09-27T12:01:02.764Z,21.99
2018-09-27T12:02:12.197Z,22
2018-09-27T12:03:21.372Z,21.99
2018-09-27T12:04:30.536Z,22.09
2018-09-27T12:05:40.480Z,21.96
2018-09-27T12:06:50.482Z,22
2018-09-27T12:07:59.918Z,22.02
2018-09-27T12:09:09.616Z,22.06
2018-09-27T12:10:19.543Z,22.07
2018-09-27T12:11:28.714Z,21.99
2018-09-27T12:12:38.691Z,22.09
2018-09-27T12:13:47.839Z,22.12
2018-09-27T12:14:57.024Z,22.05
2018-09-27T12:16:06.711Z,22.03
2018-09-27T12:17:16.139Z,22.09
2018-09-27T12:18:25.566Z,22.1
2018-09-27T12:19:35.788Z,22
2018-09-27T12:20:45.821Z,22.02
2018-09-27T12:21:55.251Z,22.09
2018-09-27T12:23:04.545Z,22.12
2018-09-27T12:24:13.738Z,22.14
2018-09-27T12:25:23.447Z,22.03
2018-09-27T12:26:33.519Z,22.1
2018-09-27T12:27:42.998Z,22.1
2018-09-27T12:28:52.733Z,22.05
2018-09-27T12:30:01.959Z,21.99
2018-09-27T12:31:11.208Z,22.09
2018-09-27T12:32:21.161Z,22.02
2018-09-27T12:33:30.329Z,22.06
2018-09-27T12:34:40.264Z,22.09
2018-09-27T12:35:49.946Z,22.07
2018-09-27T12:36:59.648Z,22.07
2018-09-27T12:38:09.335Z,22
2018-09-27T12:39:18.816Z,22.09
2018-09-27T12:40:28.350Z,22.07
2018-09-27T12:41:38.831Z,22.07
2018-09-27T12:42:48.988Z,22.07
2018-09-27T12:43:58.608Z,22.06
2018-09-27T12:45:07.575Z,22.07
2018-09-27T12:46:17.310Z,22.09
2018-09-27T12:47:27.153Z,22.07
2018-09-27T12:48:37.377Z,22.09
2018-09-27T12:49:47.876Z,22.06
2018-09-27T12:50:56.865Z,22.05
2018-09-27T12:52:07.807Z,22.17
2018-09-27T12:53:18.533Z,22.2
2018-09-27T12:54:27.716Z,22.06
2018-09-27T12:55:37.408Z,22.22
2018-09-27T12:56:47.367Z,22.14
2018-09-27T12:57:56.802Z,22.18
2018-09-27T12:59:05.973Z,22.14
2018-09-27T13:00:15.406Z,22.12
2018-09-27T13:01:25.191Z,22.2
2018-09-27T13:02:35.478Z,22.22
2018-09-27T13:03:44.940Z,22.18
2018-09-27T13:04:54.383Z,22.22
2018-09-27T13:06:04.072Z,22.21
2018-09-27T13:07:13.911Z,22.14
2018-09-27T13:08:23.621Z,22.22
2018-09-27T13:09:33.494Z,22.22
2018-09-27T13:10:43.759Z,22.12
2018-09-27T13:11:52.739Z,22.17
2018-09-27T13:13:02.438Z,22.15
2018-09-27T13:14:11.952Z,22.17
2018-09-27T13:15:21.380Z,22.21
2018-09-27T13:16:31.078Z,22.2
2018-09-27T13:17:40.963Z,22.24
2018-09-27T13:18:49.829Z,22.21
2018-09-27T13:20:03.845Z,22.18
2018-09-27T13:21:14.047Z,22.27
2018-09-27T13:22:23.489Z,22.2
2018-09-27T13:23:32.923Z,22.27
2018-09-27T13:24:42.424Z,22.2
2018-09-27T13:25:51.864Z,22.22
2018-09-27T13:27:01.521Z,22.27
2018-09-27T13:28:11.041Z,22.3
2018-09-27T13:29:20.469Z,22.3
2018-09-27T13:30:29.649Z,22.33
2018-09-27T13:31:39.087Z,22.25
2018-09-27T13:32:48.514Z,22.27
2018-09-27T13:33:58.081Z,22.33
2018-09-27T13:35:07.565Z,22.31
2018-09-27T13:36:17.257Z,22.37
2018-09-27T13:37:26.948Z,22.3
2018-09-27T13:38:36.894Z,22.35
2018-09-27T13:39:45.839Z,22.33
2018-09-27T13:40:55.622Z,22.39
2018-09-27T13:42:05.059Z,22.36
2018-09-27T13:43:14.598Z,22.39
2018-09-27T13:44:23.514Z,22.39
2018-09-27T13:45:33.455Z,22.4
2018-09-27T13:46:42.892Z,22.39
2018-09-27T13:47:52.455Z,22.36
2018-09-27T13:49:02.219Z,22.4
2018-09-27T13:50:12.023Z,22.42
2018-09-27T13:51:21.476Z,22.45
2018-09-27T13:52:31.187Z,22.43
2018-09-27T13:53:40.634Z,22.36
2018-09-27T13:54:50.089Z,22.46
2018-09-27T13:56:00.128Z,22.45
2018-09-27T13:57:09.868Z,22.47
2018-09-27T13:58:19.321Z,22.39
2018-09-27T13:59:29.043Z,22.36
2018-09-27T14:00:37.969Z,22.39
2018-09-27T14:01:47.397Z,22.45
2018-09-27T14:02:57.250Z,22.45
2018-09-27T14:04:06.815Z,22.37
2018-09-27T14:05:16.762Z,22.42
2018-09-27T14:06:26.283Z,22.46
2018-09-27T14:07:35.972Z,22.4
2018-09-27T14:08:44.885Z,22.46
2018-09-27T14:09:54.074Z,22.46
2018-09-27T14:11:03.760Z,22.46
2018-09-27T14:12:12.928Z,22.46
2018-09-27T14:13:22.630Z,22.45
2018-09-27T14:14:32.197Z,22.37
2018-09-27T14:15:41.987Z,22.4
2018-09-27T14:16:51.281Z,22.46
2018-09-27T14:18:00.818Z,22.39
2018-09-27T14:19:10.001Z,22.43
2018-09-27T14:20:19.688Z,22.37
2018-09-27T14:21:29.608Z,22.39
2018-09-27T14:22:39.051Z,22.33
2018-09-27T14:23:48.776Z,22.36
2018-09-27T14:24:58.796Z,22.37
2018-09-27T14:26:08.719Z,22.3
2018-09-27T14:27:18.158Z,22.37
2018-09-27T14:28:27.841Z,22.33
2018-09-27T14:29:37.257Z,22.36
2018-09-27T14:30:47.414Z,22.37
2018-09-27T14:31:57.275Z,22.37
2018-09-27T14:33:06.701Z,22.35
2018-09-27T14:34:16.644Z,22.28
2018-09-27T14:35:25.852Z,22.33
2018-09-27T14:36:35.059Z,22.3
2018-09-27T14:37:44.965Z,22.3
2018-09-27T14:38:54.653Z,22.33
2018-09-27T14:40:04.296Z,22.27
2018-09-27T14:41:13.202Z,22.25
2018-09-27T14:42:22.651Z,22.27
2018-09-27T14:43:32.356Z,22.28
2018-09-27T14:44:41.771Z,22.27
2018-09-27T14:45:50.951Z,22.21
2018-09-27T14:47:00.900Z,22.27
2018-09-27T14:48:10.566Z,22.33
2018-09-27T14:49:20.516Z,22.25
2018-09-27T14:50:30.189Z,22.3
2018-09-27T14:51:39.638Z,22.27
2018-09-27T14:52:49.447Z,22.27
2018-09-27T14:53:58.630Z,22.31
2018-09-27T14:55:08.391Z,22.3
2018-09-27T14:56:17.722Z,22.3
2018-09-27T14:57:27.237Z,22.28
2018-09-27T14:58:36.493Z,22.28
2018-09-27T14:59:45.512Z,22.28
2018-09-27T15:00:56.233Z,22.28
2018-09-27T15:02:05.469Z,22.27
2018-09-27T15:03:14.069Z,22.27
2018-09-27T15:04:23.750Z,22.24
2018-09-27T15:05:33.557Z,22.28
2018-09-27T15:06:43.493Z,22.27
2018-09-27T15:07:53.108Z,22.24